createdAt,value
2019-03-31T00:00:35.296Z,18.64
2019-03-31T00:01:35.320Z,18.66
2019-03-31T00:02:35.263Z,18.70
2019-03-31T00:03:35.242Z,18.66
2019-03-31T00:04:35.231Z,18.66
2019-03-31T00:05:37.317Z,18.52
2019-03-31T00:06:35.208Z,18.63
2019-03-31T00:07:35.207Z,18.58
2019-03-31T00:08:35.189Z,18.63
2019-03-31T00:09:35.177Z,18.58
2019-03-31T00:10:35.186Z,18.61
2019-03-31T00:11:35.156Z,18.55
2019-03-31T00:12:35.146Z,18.58
2019-03-31T00:13:35.139Z,18.68
2019-03-31T00:14:35.127Z,18.63
2019-03-31T00:15:35.134Z,18.64
2019-03-31T00:16:35.100Z,18.55
2019-03-31T00:17:35.092Z,18.60
2019-03-31T00:18:35.085Z,18.58
2019-03-31T00:19:35.624Z,18.58
2019-03-31T00:20:35.062Z,18.61
2019-03-31T00:21:35.062Z,18.60
2019-03-31T00:22:35.042Z,18.57
2019-03-31T00:23:35.025Z,18.57
2019-03-31T00:24:35.018Z,18.53
2019-03-31T00:25:35.010Z,18.63
2019-03-31T00:26:35.010Z,18.55
2019-03-31T00:27:34.981Z,18.57
2019-03-31T00:28:34.978Z,18.57
2019-03-31T00:29:34.959Z,18.51
2019-03-31T00:30:34.953Z,18.53
2019-03-31T00:31:34.954Z,18.51
2019-03-31T00:32:34.929Z,18.57
2019-03-31T00:33:34.922Z,18.52
2019-03-31T00:34:34.912Z,18.53
2019-03-31T00:35:34.902Z,18.51
2019-03-31T00:36:34.906Z,18.43
2019-03-31T00:37:34.876Z,18.55
2019-03-31T00:38:34.862Z,18.43
2019-03-31T00:39:34.850Z,18.41
2019-03-31T00:40:34.860Z,18.49
2019-03-31T00:41:34.844Z,18.45
2019-03-31T00:42:34.826Z,18.41
2019-03-31T00:43:34.852Z,18.46
2019-03-31T00:44:34.806Z,18.45
2019-03-31T00:45:34.795Z,18.49
2019-03-31T00:46:34.796Z,18.41
2019-03-31T00:47:34.766Z,18.45
2019-03-31T00:48:34.760Z,18.39
2019-03-31T00:49:34.751Z,18.37
2019-03-31T00:50:34.738Z,18.39
2019-03-31T00:51:34.746Z,18.39
2019-03-31T00:52:34.719Z,18.39
2019-03-31T00:53:34.780Z,18.39
2019-03-31T00:54:34.700Z,18.31
2019-03-31T00:55:34.685Z,18.36
2019-03-31T00:56:34.705Z,18.31
2019-03-31T00:57:34.666Z,18.31
2019-03-31T00:58:34.656Z,18.34
2019-03-31T00:59:34.638Z,18.28
2019-03-31T01:00:34.628Z,18.34
2019-03-31T01:01:36.745Z,18.36
2019-03-31T01:02:34.627Z,18.42
2019-03-31T01:03:34.631Z,18.37
2019-03-31T01:04:34.586Z,18.31
2019-03-31T01:05:34.578Z,18.39
2019-03-31T01:06:34.564Z,18.34
2019-03-31T01:07:34.573Z,18.30
2019-03-31T01:08:34.553Z,18.30
2019-03-31T01:09:34.534Z,18.26
2019-03-31T01:10:34.528Z,18.30
2019-03-31T01:11:34.512Z,18.27
2019-03-31T01:12:34.514Z,18.28
2019-03-31T01:13:34.492Z,18.24
2019-03-31T01:14:34.482Z,18.30
2019-03-31T01:15:34.469Z,18.24
2019-03-31T01:16:34.470Z,18.24
2019-03-31T01:17:34.468Z,18.24
2019-03-31T01:18:34.590Z,18.24
2019-03-31T01:19:34.485Z,18.26
2019-03-31T01:20:34.456Z,18.21
2019-03-31T01:21:34.428Z,18.21
2019-03-31T01:22:34.574Z,18.13
2019-03-31T01:23:34.655Z,18.23
2019-03-31T01:24:34.390Z,18.16
2019-03-31T01:25:34.390Z,18.19
2019-03-31T01:26:34.356Z,18.21
2019-03-31T01:27:34.450Z,18.16
2019-03-31T01:28:34.342Z,18.19
2019-03-31T01:29:34.338Z,18.13
2019-03-31T01:30:34.308Z,18.24
2019-03-31T01:31:34.301Z,18.18
2019-03-31T01:32:34.305Z,18.26
2019-03-31T01:33:34.276Z,18.23
2019-03-31T01:34:34.278Z,18.26
2019-03-31T01:35:34.255Z,18.19
2019-03-31T01:36:34.242Z,18.15
2019-03-31T01:37:34.254Z,18.21
2019-03-31T01:38:34.222Z,18.15
2019-03-31T01:39:34.278Z,18.21
2019-03-31T01:40:34.201Z,18.28
2019-03-31T01:41:34.190Z,18.16
2019-03-31T01:42:34.226Z,18.18
2019-03-31T01:43:34.174Z,18.13
2019-03-31T01:44:34.159Z,18.21
2019-03-31T01:45:34.152Z,18.23
2019-03-31T01:46:34.143Z,18.18
2019-03-31T01:47:34.131Z,18.15
2019-03-31T01:48:34.131Z,18.16
2019-03-31T01:49:34.104Z,18.23
2019-03-31T01:50:34.096Z,18.21
2019-03-31T01:51:34.081Z,18.23
2019-03-31T01:52:34.072Z,18.19
2019-03-31T01:53:34.094Z,18.13
2019-03-31T01:54:34.060Z,18.26
2019-03-31T01:55:34.038Z,18.24
2019-03-31T01:56:34.038Z,18.23
2019-03-31T01:57:34.017Z,18.15
2019-03-31T01:58:34.030Z,18.19
2019-03-31T01:59:34.001Z,18.13
2019-03-31T02:00:33.994Z,18.18
2019-03-31T02:01:33.980Z,18.16
2019-03-31T02:02:33.969Z,18.09
2019-03-31T02:03:33.976Z,18.13
2019-03-31T02:04:33.946Z,18.08
2019-03-31T02:05:33.934Z,18.09
2019-03-31T02:06:33.922Z,18.24
2019-03-31T02:07:33.908Z,18.21
2019-03-31T02:08:33.912Z,18.09
2019-03-31T02:09:33.897Z,18.13
2019-03-31T02:10:33.881Z,18.16
2019-03-31T02:11:33.870Z,18.19
2019-03-31T02:12:33.863Z,18.06
2019-03-31T02:13:33.862Z,18.11
2019-03-31T02:14:33.840Z,18.05
2019-03-31T02:15:33.828Z,18.09
2019-03-31T02:16:33.814Z,18.12
2019-03-31T02:17:33.810Z,18.16
2019-03-31T02:18:33.812Z,18.06
2019-03-31T02:19:33.841Z,18.12
2019-03-31T02:20:33.772Z,18.03
2019-03-31T02:21:33.758Z,18.12
2019-03-31T02:22:33.756Z,18.12
2019-03-31T02:23:33.754Z,18.12
2019-03-31T02:24:33.740Z,18.08
2019-03-31T02:25:33.724Z,18.05
2019-03-31T02:26:33.705Z,18.05
2019-03-31T02:27:33.718Z,18.11
2019-03-31T02:28:33.699Z,18.08
2019-03-31T02:29:33.675Z,18.03
2019-03-31T02:30:33.663Z,18.12
2019-03-31T02:31:33.656Z,18.05
2019-03-31T02:32:33.682Z,18.05
2019-03-31T02:33:33.647Z,18.06
2019-03-31T02:34:33.618Z,18.09
2019-03-31T02:35:33.618Z,18.02
2019-03-31T02:36:33.608Z,18.03
2019-03-31T02:37:33.593Z,18.09
2019-03-31T02:38:33.602Z,18.08
2019-03-31T02:39:33.567Z,18.11
2019-03-31T02:40:33.554Z,18.12
2019-03-31T02:41:33.544Z,18.08
2019-03-31T02:42:33.534Z,18.08
2019-03-31T02:43:33.552Z,18.08
2019-03-31T02:44:33.517Z,18.08
2019-03-31T02:45:33.517Z,18.06
2019-03-31T02:46:33.513Z,18.02
2019-03-31T02:47:33.489Z,18.13
2019-03-31T02:48:33.489Z,18.00
2019-03-31T02:49:33.469Z,18.08
2019-03-31T02:50:33.454Z,18.06
2019-03-31T02:51:33.450Z,18.11
2019-03-31T02:52:33.429Z,18.08
2019-03-31T02:53:33.437Z,18.06
2019-03-31T02:54:33.407Z,18.12
2019-03-31T02:55:33.399Z,18.08
2019-03-31T02:56:33.392Z,18.03
2019-03-31T02:57:33.406Z,18.00
2019-03-31T02:58:33.385Z,18.02
2019-03-31T02:59:33.371Z,18.13
2019-03-31T03:00:33.345Z,18.08
2019-03-31T03:01:33.332Z,18.05
2019-03-31T03:02:41.595Z,18.03
2019-03-31T03:03:34.327Z,17.97
2019-03-31T03:04:33.300Z,18.00
2019-03-31T03:05:33.290Z,18.03
2019-03-31T03:06:33.280Z,17.94
2019-03-31T03:07:33.277Z,17.94
2019-03-31T03:08:33.287Z,17.97
2019-03-31T03:09:33.244Z,18.05
2019-03-31T03:10:33.240Z,17.97
2019-03-31T03:11:33.226Z,17.94
2019-03-31T03:12:33.232Z,18.06
2019-03-31T03:13:33.205Z,17.91
2019-03-31T03:14:33.208Z,17.97
2019-03-31T03:15:33.179Z,17.91
2019-03-31T03:16:33.175Z,17.90
2019-03-31T03:17:33.162Z,17.93
2019-03-31T03:18:33.159Z,17.95
2019-03-31T03:19:33.154Z,17.93
2019-03-31T03:20:33.129Z,17.91
2019-03-31T03:21:33.134Z,17.91
2019-03-31T03:22:33.109Z,17.97
2019-03-31T03:23:33.097Z,17.98
2019-03-31T03:24:33.102Z,17.98
2019-03-31T03:25:33.078Z,17.97
2019-03-31T03:26:33.062Z,17.87
2019-03-31T03:27:33.052Z,17.88
2019-03-31T03:28:34.335Z,17.91
2019-03-31T03:29:33.080Z,17.88
2019-03-31T03:30:33.146Z,17.94
2019-03-31T03:31:33.071Z,18.00
2019-03-31T03:32:33.008Z,18.00
2019-03-31T03:33:33.032Z,17.84
2019-03-31T03:34:33.011Z,17.84
2019-03-31T03:35:32.981Z,17.86
2019-03-31T03:36:32.957Z,17.91
2019-03-31T03:37:32.955Z,17.95
2019-03-31T03:38:32.939Z,17.95
2019-03-31T03:39:32.943Z,17.88
2019-03-31T03:40:33.012Z,17.84
2019-03-31T03:41:32.902Z,17.91
2019-03-31T03:42:32.893Z,17.88
2019-03-31T03:43:32.882Z,17.86
2019-03-31T03:44:32.894Z,17.87
2019-03-31T03:45:32.862Z,17.94
2019-03-31T03:46:32.848Z,18.09
2019-03-31T03:47:32.836Z,18.18
2019-03-31T03:48:32.828Z,18.39
2019-03-31T03:49:32.835Z,18.68
2019-03-31T03:50:32.822Z,18.86
2019-03-31T03:51:32.799Z,19.12
2019-03-31T03:52:32.791Z,19.38
2019-03-31T03:53:32.833Z,19.64
2019-03-31T03:54:32.779Z,19.92
2019-03-31T03:55:32.847Z,20.24
2019-03-31T03:56:32.959Z,20.34
2019-03-31T03:57:32.735Z,20.59
2019-03-31T03:58:32.718Z,20.85
2019-03-31T03:59:32.946Z,20.85
2019-03-31T04:00:32.696Z,21.03
2019-03-31T04:01:32.691Z,21.08
2019-03-31T04:02:32.710Z,21.19
2019-03-31T04:03:32.680Z,21.23
2019-03-31T04:04:32.707Z,21.30
2019-03-31T04:05:32.663Z,21.35
2019-03-31T04:06:32.784Z,21.32
2019-03-31T04:07:32.623Z,21.26
2019-03-31T04:08:32.624Z,21.25
2019-03-31T04:09:32.605Z,21.14
2019-03-31T04:10:32.727Z,21.08
2019-03-31T04:11:32.676Z,20.98
2019-03-31T04:12:32.573Z,20.92
2019-03-31T04:13:32.595Z,20.89
2019-03-31T04:14:32.825Z,20.89
2019-03-31T04:15:32.559Z,20.70
2019-03-31T04:16:32.528Z,20.70
2019-03-31T04:17:32.572Z,20.55
2019-03-31T04:18:32.506Z,20.55
2019-03-31T04:19:32.499Z,20.48
2019-03-31T04:20:33.353Z,20.42
2019-03-31T04:21:32.535Z,20.37
2019-03-31T04:22:32.483Z,20.42
2019-03-31T04:23:32.458Z,20.27
2019-03-31T04:24:32.445Z,20.26
2019-03-31T04:25:32.509Z,20.15
2019-03-31T04:26:32.433Z,20.19
2019-03-31T04:27:32.411Z,20.18
2019-03-31T04:28:32.404Z,20.14
2019-03-31T04:29:32.400Z,20.12
2019-03-31T04:30:32.507Z,20.10
2019-03-31T04:31:32.388Z,20.03
2019-03-31T04:32:32.364Z,20.07
2019-03-31T04:33:49.714Z,20.02
2019-03-31T04:34:33.571Z,20.02
2019-03-31T04:35:33.478Z,19.94
2019-03-31T04:36:32.313Z,19.93
2019-03-31T04:37:32.900Z,19.90
2019-03-31T04:38:32.290Z,19.93
2019-03-31T04:39:32.282Z,19.85
2019-03-31T04:40:32.307Z,19.82
2019-03-31T04:41:32.261Z,19.84
2019-03-31T04:42:32.254Z,19.90
2019-03-31T04:43:32.240Z,19.89
2019-03-31T04:44:32.230Z,19.77
2019-03-31T04:45:32.215Z,19.82
2019-03-31T04:46:32.233Z,19.71
2019-03-31T04:47:32.201Z,19.74
2019-03-31T04:48:32.191Z,19.71
2019-03-31T04:49:32.176Z,19.59
2019-03-31T04:50:32.167Z,19.71
2019-03-31T04:51:32.169Z,19.64
2019-03-31T04:52:32.140Z,19.60
2019-03-31T04:53:32.133Z,19.57
2019-03-31T04:54:32.117Z,19.56
2019-03-31T04:55:32.114Z,19.53
2019-03-31T04:56:32.113Z,19.48
2019-03-31T04:57:32.086Z,19.41
2019-03-31T04:58:32.081Z,19.35
2019-03-31T04:59:32.064Z,19.38
2019-03-31T05:00:32.108Z,19.35
2019-03-31T05:01:32.061Z,19.35
2019-03-31T05:02:32.806Z,19.34
2019-03-31T05:03:32.028Z,19.29
2019-03-31T05:04:32.010Z,19.35
2019-03-31T05:05:32.159Z,19.19
2019-03-31T05:06:32.063Z,19.29
2019-03-31T05:07:31.975Z,19.12
2019-03-31T05:08:31.968Z,19.09
2019-03-31T05:09:31.960Z,19.08
2019-03-31T05:10:31.952Z,19.09
2019-03-31T05:11:31.952Z,19.20
2019-03-31T05:12:31.928Z,19.15
2019-03-31T05:13:31.915Z,19.15
2019-03-31T05:14:31.924Z,19.07
2019-03-31T05:15:31.889Z,19.09
2019-03-31T05:16:31.900Z,19.07
2019-03-31T05:17:31.868Z,19.07
2019-03-31T05:18:31.859Z,19.04
2019-03-31T05:19:31.853Z,19.05
2019-03-31T05:20:31.837Z,19.05
2019-03-31T05:21:31.839Z,19.04
2019-03-31T05:22:31.835Z,19.00
2019-03-31T05:23:31.802Z,18.96
2019-03-31T05:24:31.796Z,18.96
2019-03-31T05:25:31.780Z,18.89
2019-03-31T05:26:31.768Z,18.96
2019-03-31T05:27:31.774Z,18.96
2019-03-31T05:28:31.750Z,18.86
2019-03-31T05:29:31.736Z,18.82
2019-03-31T05:30:31.727Z,18.85
2019-03-31T05:31:31.721Z,18.85
2019-03-31T05:32:31.767Z,18.79
2019-03-31T05:33:31.695Z,18.83
2019-03-31T05:34:31.684Z,18.86
2019-03-31T05:35:31.682Z,18.83
2019-03-31T05:36:31.665Z,18.79
2019-03-31T05:37:31.676Z,18.73
2019-03-31T05:38:31.643Z,18.81
2019-03-31T05:39:31.639Z,18.81
2019-03-31T05:40:31.622Z,18.71
2019-03-31T05:41:31.626Z,18.67
2019-03-31T05:42:31.622Z,18.79
2019-03-31T05:43:31.592Z,18.74
2019-03-31T05:44:31.580Z,18.71
2019-03-31T05:45:31.565Z,18.68
2019-03-31T05:46:31.558Z,18.76
2019-03-31T05:47:31.564Z,18.70
2019-03-31T05:48:31.536Z,18.71
2019-03-31T05:49:31.532Z,18.67
2019-03-31T05:50:31.516Z,18.67
2019-03-31T05:51:31.505Z,18.73
2019-03-31T05:52:31.509Z,18.64
2019-03-31T05:53:31.488Z,18.67
2019-03-31T05:54:31.477Z,18.60
2019-03-31T05:55:31.468Z,18.63
2019-03-31T05:56:31.458Z,18.52
2019-03-31T05:57:31.468Z,18.57
2019-03-31T05:58:31.470Z,18.66
2019-03-31T05:59:31.426Z,18.48
2019-03-31T06:00:31.425Z,18.52
2019-03-31T06:01:31.409Z,18.60
2019-03-31T06:02:31.413Z,18.55
2019-03-31T06:03:31.386Z,18.61
2019-03-31T06:04:33.501Z,18.63
2019-03-31T06:05:31.367Z,18.60
2019-03-31T06:06:31.352Z,18.66
2019-03-31T06:07:31.356Z,18.53
2019-03-31T06:08:31.334Z,18.55
2019-03-31T06:09:31.318Z,18.52
2019-03-31T06:10:31.310Z,18.61
2019-03-31T06:11:31.302Z,18.55
2019-03-31T06:12:31.307Z,18.63
2019-03-31T06:13:31.277Z,18.61
2019-03-31T06:14:31.263Z,18.57
2019-03-31T06:15:31.264Z,18.60
2019-03-31T06:16:31.242Z,18.55
2019-03-31T06:17:31.252Z,18.57
2019-03-31T06:18:31.224Z,18.55
2019-03-31T06:19:31.212Z,18.64
2019-03-31T06:20:31.203Z,18.67
2019-03-31T06:21:31.189Z,18.73
2019-03-31T06:22:31.196Z,18.88
2019-03-31T06:23:31.169Z,19.00
2019-03-31T06:24:31.160Z,19.12
2019-03-31T06:25:31.153Z,19.22
2019-03-31T06:26:31.139Z,19.32
2019-03-31T06:27:31.162Z,19.44
2019-03-31T06:28:31.120Z,19.59
2019-03-31T06:29:31.109Z,19.63
2019-03-31T06:30:31.096Z,19.64
2019-03-31T06:31:31.081Z,19.79
2019-03-31T06:32:31.097Z,19.87
2019-03-31T06:33:31.068Z,19.85
2019-03-31T06:34:31.055Z,19.94
2019-03-31T06:35:31.049Z,19.82
2019-03-31T06:36:31.032Z,19.84
2019-03-31T06:37:31.055Z,19.89
2019-03-31T06:38:31.013Z,19.84
2019-03-31T06:39:34.133Z,19.84
2019-03-31T06:40:30.989Z,19.81
2019-03-31T06:41:30.978Z,19.93
2019-03-31T06:42:30.989Z,19.89
2019-03-31T06:43:30.968Z,19.92
2019-03-31T06:44:30.947Z,19.81
2019-03-31T06:45:30.937Z,19.78
2019-03-31T06:46:30.925Z,19.87
2019-03-31T06:47:30.908Z,19.79
2019-03-31T06:48:30.912Z,19.77
2019-03-31T06:49:30.889Z,19.79
2019-03-31T06:50:30.878Z,19.78
2019-03-31T06:51:30.865Z,19.79
2019-03-31T06:52:30.852Z,19.72
2019-03-31T06:53:30.864Z,19.72
2019-03-31T06:54:30.838Z,19.74
2019-03-31T06:55:30.897Z,19.81
2019-03-31T06:56:30.811Z,19.71
2019-03-31T06:57:30.802Z,19.71
2019-03-31T06:58:30.819Z,19.71
2019-03-31T06:59:30.781Z,19.60
2019-03-31T07:00:30.785Z,19.62
2019-03-31T07:01:30.761Z,19.67
2019-03-31T07:02:30.752Z,19.57
2019-03-31T07:03:30.752Z,19.55
2019-03-31T07:04:30.746Z,19.63
2019-03-31T07:05:30.720Z,19.47
2019-03-31T07:06:30.706Z,19.47
2019-03-31T07:07:30.694Z,19.49
2019-03-31T07:08:30.697Z,19.53
2019-03-31T07:09:30.670Z,19.53
2019-03-31T07:10:30.666Z,19.42
2019-03-31T07:11:30.652Z,19.39
2019-03-31T07:12:30.635Z,19.47
2019-03-31T07:13:30.636Z,19.45
2019-03-31T07:14:30.622Z,19.47
2019-03-31T07:15:30.605Z,19.49
2019-03-31T07:16:30.599Z,19.48
2019-03-31T07:17:30.594Z,19.48
2019-03-31T07:18:30.593Z,19.45
2019-03-31T07:19:30.561Z,19.45
2019-03-31T07:20:30.550Z,19.45
2019-03-31T07:21:30.545Z,19.41
2019-03-31T07:22:30.527Z,19.37
2019-03-31T07:23:30.534Z,19.39
2019-03-31T07:24:30.511Z,19.39
2019-03-31T07:25:30.501Z,19.38
2019-03-31T07:26:30.482Z,19.37
2019-03-31T07:27:30.470Z,19.35
2019-03-31T07:28:30.482Z,19.30
2019-03-31T07:29:30.456Z,19.32
2019-03-31T07:30:30.438Z,19.29
2019-03-31T07:31:30.433Z,19.34
2019-03-31T07:32:30.422Z,19.27
2019-03-31T07:33:30.417Z,19.27
2019-03-31T07:34:30.431Z,19.26
2019-03-31T07:35:30.388Z,19.17
2019-03-31T07:36:30.376Z,19.23
2019-03-31T07:37:30.372Z,19.23
2019-03-31T07:38:38.794Z,19.17
2019-03-31T07:39:31.576Z,19.23
2019-03-31T07:40:30.544Z,19.11
2019-03-31T07:41:30.441Z,19.09
2019-03-31T07:42:30.472Z,19.15
2019-03-31T07:43:30.314Z,19.20
2019-03-31T07:44:30.305Z,19.11
2019-03-31T07:45:30.279Z,19.11
2019-03-31T07:46:30.268Z,19.05
2019-03-31T07:47:30.264Z,19.15
2019-03-31T07:48:30.252Z,19.08
2019-03-31T07:49:30.243Z,19.09
2019-03-31T07:50:30.223Z,19.05
2019-03-31T07:51:30.213Z,19.04
2019-03-31T07:52:30.204Z,19.01
2019-03-31T07:53:30.192Z,18.98
2019-03-31T07:54:30.197Z,18.98
2019-03-31T07:55:30.168Z,18.97
2019-03-31T07:56:30.157Z,19.01
2019-03-31T07:57:30.141Z,18.89
2019-03-31T07:58:30.196Z,18.91
2019-03-31T07:59:30.170Z,18.82
2019-03-31T08:00:30.114Z,18.86
2019-03-31T08:01:30.101Z,18.85
2019-03-31T08:02:30.094Z,18.78
2019-03-31T08:03:30.089Z,18.92
2019-03-31T08:04:30.083Z,18.83
2019-03-31T08:05:33.311Z,18.88
2019-03-31T08:06:31.049Z,18.88
2019-03-31T08:07:30.035Z,18.82
2019-03-31T08:08:30.028Z,18.78
2019-03-31T08:09:30.033Z,18.85
2019-03-31T08:10:30.002Z,18.74
2019-03-31T08:11:29.993Z,18.74
2019-03-31T08:12:30.004Z,18.82
2019-03-31T08:13:29.968Z,18.82
2019-03-31T08:14:29.971Z,18.81
2019-03-31T08:15:29.951Z,18.82
2019-03-31T08:16:29.935Z,18.86
2019-03-31T08:17:29.926Z,18.81
2019-03-31T08:18:29.917Z,18.82
2019-03-31T08:19:29.928Z,18.86
2019-03-31T08:20:29.890Z,18.82
2019-03-31T08:21:29.880Z,18.85
2019-03-31T08:22:29.876Z,18.82
2019-03-31T08:23:29.859Z,18.82
2019-03-31T08:24:29.851Z,18.79
2019-03-31T08:25:29.855Z,18.83
2019-03-31T08:26:29.824Z,18.81
2019-03-31T08:27:29.823Z,18.81
2019-03-31T08:28:29.812Z,18.85
2019-03-31T08:29:29.794Z,18.76
2019-03-31T08:30:29.803Z,18.86
2019-03-31T08:31:29.769Z,18.83
2019-03-31T08:32:29.764Z,18.82
2019-03-31T08:33:29.754Z,18.85
2019-03-31T08:34:29.735Z,18.88
2019-03-31T08:35:29.742Z,18.85
2019-03-31T08:36:29.718Z,18.83
2019-03-31T08:37:29.708Z,18.82
2019-03-31T08:38:29.692Z,18.88
2019-03-31T08:39:29.753Z,18.86
2019-03-31T08:40:29.689Z,18.85
2019-03-31T08:41:29.663Z,18.78
2019-03-31T08:42:29.651Z,18.79
2019-03-31T08:43:29.647Z,18.79
2019-03-31T08:44:29.625Z,18.85
2019-03-31T08:45:30.592Z,18.70
2019-03-31T08:46:29.612Z,18.73
2019-03-31T08:47:29.592Z,18.82
2019-03-31T08:48:29.583Z,18.74
2019-03-31T08:49:29.571Z,18.73
2019-03-31T08:50:29.579Z,18.82
2019-03-31T08:51:29.548Z,18.76
2019-03-31T08:52:29.546Z,18.82
2019-03-31T08:53:29.530Z,18.76
2019-03-31T08:54:29.525Z,18.82
2019-03-31T08:55:29.524Z,18.73
2019-03-31T08:56:29.494Z,18.71
2019-03-31T08:57:29.487Z,18.81
2019-03-31T08:58:29.478Z,18.79
2019-03-31T08:59:29.464Z,18.83
2019-03-31T09:00:29.468Z,18.70
2019-03-31T09:01:29.444Z,18.68
2019-03-31T09:02:29.438Z,18.68
2019-03-31T09:03:29.420Z,18.67
2019-03-31T09:04:29.461Z,18.74
2019-03-31T09:05:29.420Z,18.73
2019-03-31T09:06:29.416Z,18.74
2019-03-31T09:07:29.382Z,18.68
2019-03-31T09:08:29.374Z,18.61
2019-03-31T09:09:29.355Z,18.68
2019-03-31T09:10:29.377Z,18.64
2019-03-31T09:11:29.352Z,18.68
2019-03-31T09:12:29.328Z,18.68
2019-03-31T09:13:29.322Z,18.63
2019-03-31T09:14:29.312Z,18.64
2019-03-31T09:15:29.324Z,18.60
2019-03-31T09:16:29.292Z,18.61
2019-03-31T09:17:29.275Z,18.66
2019-03-31T09:18:29.272Z,18.63
2019-03-31T09:19:29.258Z,18.64
2019-03-31T09:20:29.247Z,18.63
2019-03-31T09:21:29.257Z,18.67
2019-03-31T09:22:29.230Z,18.66
2019-03-31T09:23:29.225Z,18.61
2019-03-31T09:24:29.210Z,18.57
2019-03-31T09:25:29.192Z,18.58
2019-03-31T09:26:29.200Z,18.58
2019-03-31T09:27:29.186Z,18.55
2019-03-31T09:28:29.166Z,18.64
2019-03-31T09:29:29.155Z,18.53
2019-03-31T09:30:29.149Z,18.52
2019-03-31T09:31:29.152Z,18.63
2019-03-31T09:32:29.119Z,18.63
2019-03-31T09:33:29.114Z,18.55
2019-03-31T09:34:29.107Z,18.60
2019-03-31T09:35:29.092Z,18.57
2019-03-31T09:36:29.092Z,18.57
2019-03-31T09:37:29.070Z,18.66
2019-03-31T09:38:29.059Z,18.61
2019-03-31T09:39:29.049Z,18.68
2019-03-31T09:40:29.046Z,18.64
2019-03-31T09:41:29.040Z,18.67
2019-03-31T09:42:29.014Z,18.64
2019-03-31T09:43:29.011Z,18.64
2019-03-31T09:44:30.356Z,18.66
2019-03-31T09:45:28.983Z,18.53
2019-03-31T09:46:29.067Z,18.70
2019-03-31T09:47:28.972Z,18.66
2019-03-31T09:48:28.956Z,18.60
2019-03-31T09:49:28.952Z,18.67
2019-03-31T09:50:28.936Z,18.61
2019-03-31T09:51:28.944Z,18.73
2019-03-31T09:52:28.915Z,18.86
2019-03-31T09:53:28.904Z,19.09
2019-03-31T09:54:28.896Z,19.24
2019-03-31T09:55:28.890Z,19.32
2019-03-31T09:56:28.922Z,19.49
2019-03-31T09:57:28.873Z,19.70
2019-03-31T09:58:28.852Z,19.81
2019-03-31T09:59:28.839Z,20.04
2019-03-31T10:00:28.834Z,20.18
2019-03-31T10:01:28.823Z,20.27
2019-03-31T10:02:28.838Z,20.48
2019-03-31T10:03:28.803Z,20.58
2019-03-31T10:04:28.799Z,20.66
2019-03-31T10:05:28.782Z,20.71
2019-03-31T10:06:30.427Z,20.85
2019-03-31T10:07:28.777Z,20.82
2019-03-31T10:08:28.754Z,20.89
2019-03-31T10:09:28.766Z,20.90
2019-03-31T10:10:28.733Z,20.77
2019-03-31T10:11:28.733Z,20.83
2019-03-31T10:12:28.717Z,20.80
2019-03-31T10:13:28.692Z,20.85
2019-03-31T10:14:28.704Z,20.73
2019-03-31T10:15:28.671Z,20.66
2019-03-31T10:16:28.665Z,20.67
2019-03-31T10:17:28.671Z,20.64
2019-03-31T10:18:28.639Z,20.66
2019-03-31T10:19:28.628Z,20.56
2019-03-31T10:20:31.470Z,20.60
2019-03-31T10:21:28.617Z,20.58
2019-03-31T10:22:28.614Z,20.60
2019-03-31T10:23:28.595Z,20.58
2019-03-31T10:24:28.635Z,20.56
2019-03-31T10:25:28.564Z,20.74
2019-03-31T10:26:32.073Z,20.75
2019-03-31T10:27:28.564Z,20.66
2019-03-31T10:28:28.541Z,20.66
2019-03-31T10:29:28.526Z,20.60
2019-03-31T10:30:28.509Z,20.56
2019-03-31T10:31:28.503Z,20.63
2019-03-31T10:32:28.490Z,20.55
2019-03-31T10:33:28.497Z,20.59
2019-03-31T10:34:28.487Z,20.55
2019-03-31T10:35:28.458Z,20.58
2019-03-31T10:36:28.452Z,20.53
2019-03-31T10:37:28.443Z,20.59
2019-03-31T10:38:28.452Z,20.56
2019-03-31T10:39:28.420Z,20.55
2019-03-31T10:40:28.421Z,20.52
2019-03-31T10:41:30.972Z,20.46
2019-03-31T10:42:28.384Z,20.39
2019-03-31T10:43:28.394Z,20.39
2019-03-31T10:44:28.364Z,20.39
2019-03-31T10:45:28.356Z,20.48
2019-03-31T10:46:28.344Z,20.46
2019-03-31T10:47:28.331Z,20.48
2019-03-31T10:48:28.336Z,20.48
2019-03-31T10:49:28.314Z,20.42
2019-03-31T10:50:28.303Z,20.39
2019-03-31T10:51:28.298Z,20.34
2019-03-31T10:52:28.279Z,20.32
2019-03-31T10:53:28.309Z,20.33
2019-03-31T10:54:28.260Z,20.22
2019-03-31T10:55:28.257Z,20.29
2019-03-31T10:56:28.243Z,20.33
2019-03-31T10:57:28.227Z,20.26
2019-03-31T10:58:28.218Z,20.22
2019-03-31T10:59:28.231Z,20.14
2019-03-31T11:00:28.273Z,20.17
2019-03-31T11:01:28.186Z,20.15
2019-03-31T11:02:28.170Z,20.17
2019-03-31T11:03:28.166Z,20.18
2019-03-31T11:04:28.180Z,20.11
2019-03-31T11:05:28.139Z,20.12
2019-03-31T11:06:28.129Z,20.11
2019-03-31T11:07:28.135Z,20.08
2019-03-31T11:08:28.107Z,20.04
2019-03-31T11:09:28.162Z,20.08
2019-03-31T11:10:28.089Z,20.04
2019-03-31T11:11:28.078Z,20.07
2019-03-31T11:12:28.066Z,20.04
2019-03-31T11:13:28.053Z,20.07
2019-03-31T11:14:28.105Z,20.07
2019-03-31T11:15:28.040Z,20.07
2019-03-31T11:16:28.025Z,20.03
2019-03-31T11:17:28.012Z,20.07
2019-03-31T11:18:28.014Z,20.07
2019-03-31T11:19:28.016Z,20.04
2019-03-31T11:20:27.981Z,20.02
2019-03-31T11:21:27.971Z,20.00
2019-03-31T11:22:27.982Z,19.99
2019-03-31T11:23:27.955Z,19.90
2019-03-31T11:24:27.952Z,19.90
2019-03-31T11:25:29.429Z,19.92
2019-03-31T11:26:27.926Z,19.94
2019-03-31T11:27:27.907Z,19.92
2019-03-31T11:28:27.905Z,19.90
2019-03-31T11:29:27.913Z,19.93
2019-03-31T11:30:27.876Z,19.87
2019-03-31T11:31:27.867Z,19.94
2019-03-31T11:32:27.855Z,19.93
2019-03-31T11:33:27.843Z,19.82
2019-03-31T11:34:27.831Z,19.90
2019-03-31T11:35:27.839Z,19.93
2019-03-31T11:36:27.813Z,19.89
2019-03-31T11:37:27.806Z,19.84
2019-03-31T11:38:27.788Z,19.82
2019-03-31T11:39:27.779Z,19.78
2019-03-31T11:40:27.779Z,19.81
2019-03-31T11:41:27.764Z,19.78
2019-03-31T11:42:27.748Z,19.79
2019-03-31T11:43:27.736Z,19.78
2019-03-31T11:44:27.957Z,19.84
2019-03-31T11:45:27.728Z,19.82
2019-03-31T11:46:27.707Z,19.77
2019-03-31T11:47:27.702Z,19.81
2019-03-31T11:48:27.686Z,19.77
2019-03-31T11:49:27.676Z,19.81
2019-03-31T11:50:27.681Z,19.71
2019-03-31T11:51:27.649Z,19.74
2019-03-31T11:52:27.644Z,19.74
2019-03-31T11:53:27.639Z,19.64
2019-03-31T11:54:27.627Z,19.72
2019-03-31T11:55:27.627Z,19.64
2019-03-31T11:56:27.604Z,19.71
2019-03-31T11:57:27.684Z,19.64
2019-03-31T11:58:27.609Z,19.59
2019-03-31T11:59:27.565Z,19.64
2019-03-31T12:00:27.578Z,19.64
2019-03-31T12:01:27.554Z,19.63
2019-03-31T12:02:27.913Z,19.70
2019-03-31T12:03:30.738Z,19.59
2019-03-31T12:04:27.516Z,19.71
2019-03-31T12:05:27.535Z,19.59
2019-03-31T12:06:27.495Z,19.64
2019-03-31T12:07:28.615Z,19.60
2019-03-31T12:08:27.475Z,19.60
2019-03-31T12:09:27.457Z,19.55
2019-03-31T12:10:27.453Z,19.60
2019-03-31T12:11:27.455Z,19.57
2019-03-31T12:12:27.431Z,19.56
2019-03-31T12:13:27.420Z,19.59
2019-03-31T12:14:27.437Z,19.56
2019-03-31T12:15:27.395Z,19.56
2019-03-31T12:16:27.407Z,19.57
2019-03-31T12:17:27.375Z,19.60
2019-03-31T12:18:27.364Z,19.57
2019-03-31T12:19:27.355Z,19.57
2019-03-31T12:20:27.350Z,19.55
2019-03-31T12:21:27.360Z,19.59
2019-03-31T12:22:27.326Z,19.59
2019-03-31T12:23:27.318Z,19.59
2019-03-31T12:24:27.304Z,19.57
2019-03-31T12:25:27.293Z,19.56
2019-03-31T12:26:27.293Z,19.63
2019-03-31T12:27:27.273Z,19.59
2019-03-31T12:28:27.301Z,19.60
2019-03-31T12:29:27.261Z,19.55
2019-03-31T12:30:27.238Z,19.57
2019-03-31T12:31:27.248Z,19.57
2019-03-31T12:32:27.216Z,19.49
2019-03-31T12:33:27.212Z,19.49
2019-03-31T12:34:27.208Z,19.49
2019-03-31T12:35:27.193Z,19.52
2019-03-31T12:36:27.199Z,19.53
2019-03-31T12:37:41.276Z,19.53
2019-03-31T12:38:28.154Z,19.42
2019-03-31T12:39:27.142Z,19.49
2019-03-31T12:40:27.133Z,19.56
2019-03-31T12:41:27.141Z,19.45
2019-03-31T12:42:27.169Z,19.56
2019-03-31T12:43:27.109Z,19.53
2019-03-31T12:44:27.097Z,19.53
2019-03-31T12:45:27.084Z,19.52
2019-03-31T12:46:27.102Z,19.48
2019-03-31T12:47:27.063Z,19.53
2019-03-31T12:48:27.054Z,19.55
2019-03-31T12:49:27.036Z,19.57
2019-03-31T12:50:27.033Z,19.57
2019-03-31T12:51:27.034Z,19.63
2019-03-31T12:52:27.019Z,19.57